createdAt,value
2023-01-22T00:00:27.732Z,100953.47
2023-01-22T00:01:59.521Z,100952.59
2023-01-22T00:03:31.388Z,100949.00
2023-01-22T00:05:04.424Z,100943.78
2023-01-22T00:06:36.177Z,100948.16
2023-01-22T00:08:07.869Z,100946.44
2023-01-22T00:09:39.588Z,100947.31
2023-01-22T00:11:12.095Z,100948.22
2023-01-22T00:12:43.804Z,100951.72
2023-01-22T00:14:15.770Z,100945.53
2023-01-22T00:15:47.940Z,100947.31
2023-01-22T00:17:19.825Z,100946.44
2023-01-22T00:18:51.513Z,100944.66
2023-01-22T00:20:23.238Z,100944.72
2023-01-22T00:21:55.031Z,100944.66
2023-01-22T00:23:26.828Z,100949.97
2023-01-22T00:24:58.545Z,100944.66
2023-01-22T00:26:30.258Z,100944.66
2023-01-22T00:28:01.978Z,100943.78
2023-01-22T00:29:34.923Z,100949.09
2023-01-22T00:31:07.124Z,100953.47
2023-01-22T00:32:38.943Z,100944.66
2023-01-22T00:34:10.763Z,100942.00
2023-01-22T00:35:42.471Z,100944.66
2023-01-22T00:37:14.226Z,100942.88
2023-01-22T00:38:50.395Z,100943.78
2023-01-22T00:40:22.165Z,100953.47
2023-01-22T00:41:53.968Z,100949.09
2023-01-22T00:43:25.671Z,100945.53
2023-01-22T00:44:57.431Z,100944.63
2023-01-22T00:46:29.366Z,100949.06
2023-01-22T00:48:15.589Z,100951.72
2023-01-22T00:49:47.431Z,100947.28
2023-01-22T00:51:19.535Z,100954.38
2023-01-22T00:52:51.671Z,100951.72
2023-01-22T00:54:23.651Z,100957.91
2023-01-22T00:56:00.733Z,100957.06
2023-01-22T00:57:33.221Z,100966.72
2023-01-22T00:59:10.374Z,100966.75
2023-01-22T01:00:42.257Z,100968.50
2023-01-22T01:02:14.761Z,100966.72
2023-01-22T01:03:46.595Z,100966.66
2023-01-22T01:05:18.290Z,100974.59
2023-01-22T01:06:49.960Z,100983.47
2023-01-22T01:08:22.715Z,100977.25
2023-01-22T01:09:54.399Z,100979.03
2023-01-22T01:11:26.369Z,100978.09
2023-01-22T01:12:58.102Z,100975.44
2023-01-22T01:14:29.788Z,100975.38
2023-01-22T01:16:04.986Z,100983.34
2023-01-22T01:17:36.831Z,100976.28
2023-01-22T01:19:12.071Z,100974.50
2023-01-22T01:20:43.816Z,100971.84
2023-01-22T01:22:15.551Z,100972.72
2023-01-22T01:23:47.234Z,100976.22
2023-01-22T01:25:18.908Z,100977.16
2023-01-22T01:26:50.609Z,100972.72
2023-01-22T01:28:22.729Z,100974.50
2023-01-22T01:29:54.420Z,100976.22
2023-01-22T01:31:26.656Z,100973.56
2023-01-22T01:33:01.937Z,100981.53
2023-01-22T01:34:33.623Z,100980.66
2023-01-22T01:36:11.993Z,100979.81
2023-01-22T01:37:43.794Z,100976.22
2023-01-22T01:39:15.706Z,100970.94
2023-01-22T01:40:47.406Z,100970.94
2023-01-22T01:42:30.975Z,100970.09
2023-01-22T01:44:11.469Z,100971.84
2023-01-22T01:45:43.409Z,100965.63
2023-01-22T01:47:32.126Z,100966.53
2023-01-22T01:49:04.573Z,100969.09
2023-01-22T01:50:39.835Z,100970.00
2023-01-22T01:52:13.210Z,100964.75
2023-01-22T01:53:46.898Z,100962.09
2023-01-22T01:55:24.594Z,100966.47
2023-01-22T01:57:26.185Z,100973.63
2023-01-22T01:59:02.759Z,100965.63
2023-01-22T02:00:36.290Z,100979.75
2023-01-22T02:02:08.793Z,100968.28
2023-01-22T02:03:41.228Z,100964.75
2023-01-22T02:05:13.049Z,100961.19
2023-01-22T02:06:45.265Z,100965.63
2023-01-22T02:08:17.764Z,100982.41
2023-01-22T02:09:49.492Z,100985.03
2023-01-22T02:11:22.497Z,100977.16
2023-01-22T02:12:58.016Z,100977.16
2023-01-22T02:14:35.301Z,100983.34
2023-01-22T02:16:07.982Z,100978.03
2023-01-22T02:17:40.169Z,100989.53
2023-01-22T02:19:12.261Z,100988.63
2023-01-22T02:21:01.311Z,100991.31
2023-01-22T02:22:37.493Z,100988.66
2023-01-22T02:24:16.772Z,100984.25
2023-01-22T02:25:48.858Z,100988.66
2023-01-22T02:27:20.593Z,100997.50
2023-01-22T02:28:54.024Z,100990.44
2023-01-22T02:30:26.705Z,101000.16
2023-01-22T02:32:01.008Z,100999.22
2023-01-22T02:33:32.972Z,100995.72
2023-01-22T02:35:04.847Z,101002.75
2023-01-22T02:36:38.544Z,101000.97
2023-01-22T02:38:11.366Z,101002.72
2023-01-22T02:39:43.098Z,101000.06
2023-01-22T02:41:15.611Z,100997.34
2023-01-22T02:42:47.368Z,100999.09
2023-01-22T02:44:19.205Z,100998.22
2023-01-22T02:45:51.242Z,100995.56
2023-01-22T02:47:23.159Z,100994.69
2023-01-22T02:48:55.482Z,100996.44
2023-01-22T02:50:27.339Z,101003.50
2023-01-22T02:51:59.072Z,100996.41
2023-01-22T02:53:30.871Z,101001.72
2023-01-22T02:55:04.897Z,101002.56
2023-01-22T02:56:36.641Z,100999.94
2023-01-22T02:58:08.647Z,101000.78
2023-01-22T02:59:40.319Z,100991.97
2023-01-22T03:01:23.204Z,100997.28
2023-01-22T03:02:57.062Z,100992.84
2023-01-22T03:04:29.001Z,101003.41
2023-01-22T03:06:00.736Z,100999.00
2023-01-22T03:07:42.854Z,100998.13
2023-01-22T03:09:17.024Z,100999.00
2023-01-22T03:10:48.816Z,101006.97
2023-01-22T03:12:20.578Z,100999.88
2023-01-22T03:14:12.212Z,101000.78
2023-01-22T03:16:03.356Z,101004.31
2023-01-22T03:17:53.575Z,101004.31
2023-01-22T03:19:44.216Z,101001.66
2023-01-22T03:21:22.922Z,100997.28
2023-01-22T03:22:54.703Z,100999.88
2023-01-22T03:24:26.535Z,100999.06
2023-01-22T03:25:58.569Z,101007.88
2023-01-22T03:27:31.999Z,101010.53
2023-01-22T03:29:03.825Z,101013.19
2023-01-22T03:30:35.545Z,101021.09
2023-01-22T03:32:07.577Z,101012.31
2023-01-22T03:33:42.142Z,101010.47
2023-01-22T03:35:14.146Z,101015.78
2023-01-22T03:36:59.580Z,101007.88
2023-01-22T03:38:31.372Z,101016.69
2023-01-22T03:40:04.101Z,101019.34
2023-01-22T03:41:42.913Z,101023.75
2023-01-22T03:43:15.215Z,101023.75
2023-01-22T03:44:47.464Z,101024.63
2023-01-22T03:46:20.103Z,101021.94
2023-01-22T03:47:55.966Z,101027.28
2023-01-22T03:49:34.542Z,101021.06
2023-01-22T03:51:16.979Z,101019.34
2023-01-22T03:52:49.112Z,101022.84
2023-01-22T03:54:20.959Z,101027.28
2023-01-22T03:55:57.695Z,101027.28
2023-01-22T03:57:30.749Z,101028.16
2023-01-22T03:59:02.528Z,101036.13
2023-01-22T04:00:34.900Z,101025.53
2023-01-22T04:02:09.854Z,101036.97
2023-01-22T04:03:51.564Z,101032.59
2023-01-22T04:05:23.306Z,101033.50
2023-01-22T04:06:55.032Z,101036.13
2023-01-22T04:08:30.063Z,101037.91
2023-01-22T04:10:01.758Z,101029.94
2023-01-22T04:11:35.192Z,101033.50
2023-01-22T04:13:11.573Z,101031.69
2023-01-22T04:14:45.562Z,101031.69
2023-01-22T04:16:17.368Z,101035.25
2023-01-22T04:18:01.041Z,101037.91
2023-01-22T04:20:05.948Z,101040.56
2023-01-22T04:21:47.034Z,101043.22
2023-01-22T04:23:20.509Z,101041.41
2023-01-22T04:24:53.379Z,101039.66
2023-01-22T04:26:25.592Z,101043.16
2023-01-22T04:27:58.812Z,101039.63
2023-01-22T04:29:30.639Z,101045.81
2023-01-22T04:31:04.768Z,101047.53
2023-01-22T04:32:54.737Z,101044.00
2023-01-22T04:34:36.449Z,101051.09
2023-01-22T04:36:23.774Z,101048.44
2023-01-22T04:37:55.576Z,101050.16
2023-01-22T04:39:27.725Z,101048.44
2023-01-22T04:40:59.449Z,101054.59
2023-01-22T04:42:33.128Z,101052.81
2023-01-22T04:44:05.369Z,101052.81
2023-01-22T04:45:38.535Z,101051.03
2023-01-22T04:47:10.268Z,101050.16
2023-01-22T04:48:43.798Z,101049.22
2023-01-22T04:50:19.149Z,101049.22
2023-01-22T04:51:54.196Z,101048.34
2023-01-22T04:53:25.988Z,101045.69
2023-01-22T04:54:57.708Z,101058.06
2023-01-22T04:56:33.947Z,101048.34
2023-01-22T04:58:05.740Z,101050.06
2023-01-22T04:59:38.249Z,101060.69
2023-01-22T05:01:09.993Z,101054.50
2023-01-22T05:02:41.803Z,101054.50
2023-01-22T05:04:14.157Z,101058.97
2023-01-22T05:05:45.851Z,101058.97
2023-01-22T05:07:17.593Z,101065.22
2023-01-22T05:08:49.308Z,101062.50
2023-01-22T05:10:21.987Z,101069.59
2023-01-22T05:11:54.520Z,101074.91
2023-01-22T05:13:26.317Z,101069.59
2023-01-22T05:14:59.324Z,101070.50
2023-01-22T05:16:31.106Z,101072.31
2023-01-22T05:18:02.827Z,101066.06
2023-01-22T05:19:35.727Z,101070.50
2023-01-22T05:21:10.299Z,101074.91
2023-01-22T05:22:42.688Z,101074.03
2023-01-22T05:24:14.797Z,101074.94
2023-01-22T05:25:48.931Z,101068.75
2023-01-22T05:27:23.243Z,101074.06
2023-01-22T05:29:00.462Z,101069.69
2023-01-22T05:30:50.071Z,101074.97
2023-01-22T05:32:35.899Z,101074.06
2023-01-22T05:34:08.393Z,101079.41
2023-01-22T05:35:40.296Z,101079.41
2023-01-22T05:37:12.112Z,101081.22
2023-01-22T05:38:46.625Z,101075.91
2023-01-22T05:40:19.288Z,101078.56
2023-01-22T05:41:52.245Z,101075.03
2023-01-22T05:43:24.036Z,101080.34
2023-01-22T05:45:00.624Z,101086.50
2023-01-22T05:46:33.248Z,101080.34
2023-01-22T05:48:23.750Z,101085.66
2023-01-22T05:50:11.307Z,101084.75
2023-01-22T05:51:43.296Z,101085.66
2023-01-22T05:53:15.095Z,101084.75
2023-01-22T05:54:47.718Z,101082.09
2023-01-22T05:56:19.586Z,101080.34
2023-01-22T05:57:51.347Z,101088.31
2023-01-22T05:59:23.764Z,101095.34
2023-01-22T06:01:05.415Z,101093.59
2023-01-22T06:02:44.376Z,101103.28
2023-01-22T06:04:18.368Z,101098.00
2023-01-22T06:06:08.638Z,101098.06
2023-01-22T06:07:40.443Z,101095.34
2023-01-22T06:09:13.998Z,101100.66
2023-01-22T06:10:46.521Z,101100.66
2023-01-22T06:12:18.661Z,101098.91
2023-01-22T06:13:51.679Z,101102.44
2023-01-22T06:15:27.599Z,101093.63
2023-01-22T06:17:07.647Z,101103.38
2023-01-22T06:18:44.415Z,101102.50
2023-01-22T06:20:18.341Z,101105.16
2023-01-22T06:21:50.569Z,101104.28
2023-01-22T06:23:23.203Z,101107.84
2023-01-22T06:24:54.972Z,101110.50
2023-01-22T06:26:29.378Z,101114.94
2023-01-22T06:28:01.104Z,101114.94
2023-01-22T06:29:35.053Z,101118.44
2023-01-22T06:31:07.908Z,101114.94
2023-01-22T06:32:41.328Z,101114.94
2023-01-22T06:34:16.400Z,101118.44
2023-01-22T06:35:53.492Z,101119.38
2023-01-22T06:37:26.016Z,101122.00
2023-01-22T06:38:57.950Z,101137.91
2023-01-22T06:40:41.376Z,101137.00
2023-01-22T06:42:13.093Z,101141.44
2023-01-22T06:43:45.324Z,101141.44
2023-01-22T06:45:17.600Z,101152.94
2023-01-22T06:46:56.553Z,101147.63
2023-01-22T06:48:30.932Z,101157.38
2023-01-22T06:50:03.809Z,101150.28
2023-01-22T06:51:35.566Z,101153.84
2023-01-22T06:53:07.458Z,101154.69
2023-01-22T06:54:39.476Z,101156.47
2023-01-22T06:56:11.546Z,101155.59
2023-01-22T06:57:44.280Z,101151.19
2023-01-22T06:59:16.016Z,101154.69
2023-01-22T07:00:47.742Z,101161.72
2023-01-22T07:02:20.060Z,101154.69
2023-01-22T07:03:52.502Z,101166.13
2023-01-22T07:05:24.531Z,101160.00
2023-01-22T07:06:56.305Z,101170.63
2023-01-22T07:08:29.989Z,101177.66
2023-01-22T07:10:01.957Z,101166.16
2023-01-22T07:11:33.764Z,101170.63
2023-01-22T07:13:06.857Z,101175.06
2023-01-22T07:14:38.549Z,101172.41
2023-01-22T07:16:10.333Z,101175.06
2023-01-22T07:17:42.058Z,101172.41
2023-01-22T07:19:13.715Z,101177.66
2023-01-22T07:20:45.905Z,101183.81
2023-01-22T07:22:17.600Z,101182.94
2023-01-22T07:23:49.274Z,101186.44
2023-01-22T07:25:20.951Z,101181.16
2023-01-22T07:26:52.659Z,101184.69
2023-01-22T07:28:24.496Z,101186.44
2023-01-22T07:29:56.175Z,101175.84
2023-01-22T07:31:27.933Z,101184.66
2023-01-22T07:33:01.835Z,101181.97
2023-01-22T07:34:33.566Z,101179.31
2023-01-22T07:36:05.919Z,101187.25
2023-01-22T07:37:37.669Z,101193.44
2023-01-22T07:39:09.382Z,101192.53
2023-01-22T07:40:41.144Z,101185.41
2023-01-22T07:42:13.591Z,101188.09
2023-01-22T07:43:46.701Z,101193.34
2023-01-22T07:45:19.480Z,101193.34
2023-01-22T07:46:51.387Z,101197.78
2023-01-22T07:48:23.162Z,101203.94
2023-01-22T07:49:54.855Z,101205.69
2023-01-22T07:51:26.567Z,101197.72
2023-01-22T07:53:00.752Z,101203.88
2023-01-22T07:54:36.363Z,101201.22
2023-01-22T07:56:08.498Z,101215.34
2023-01-22T07:57:40.176Z,101210.88
2023-01-22T07:59:11.890Z,101217.06
2023-01-22T08:00:43.584Z,101215.28
2023-01-22T08:02:15.723Z,101209.97
2023-01-22T08:03:47.443Z,101214.34
2023-01-22T08:05:19.165Z,101224.06
2023-01-22T08:06:51.325Z,101217.88
2023-01-22T08:08:23.027Z,101225.81
2023-01-22T08:09:54.716Z,101220.50
2023-01-22T08:11:27.731Z,101221.38
2023-01-22T08:12:59.458Z,101216.94
2023-01-22T08:14:31.252Z,101222.22
2023-01-22T08:16:03.180Z,101226.63
2023-01-22T08:17:35.395Z,101222.16
2023-01-22T08:19:07.086Z,101221.22
2023-01-22T08:20:39.207Z,101226.53
2023-01-22T08:22:10.932Z,101229.19
2023-01-22T08:23:46.176Z,101230.00
2023-01-22T08:25:19.290Z,101236.13
2023-01-22T08:26:51.031Z,101230.75
2023-01-22T08:28:22.742Z,101231.59
2023-01-22T08:29:55.362Z,101240.38
2023-01-22T08:31:28.572Z,101240.28
2023-01-22T08:33:02.947Z,101245.66
2023-01-22T08:34:34.674Z,101244.78
2023-01-22T08:36:06.764Z,101248.34
2023-01-22T08:37:38.643Z,101244.81
2023-01-22T08:39:10.836Z,101250.09
2023-01-22T08:40:42.482Z,101259.81
2023-01-22T08:42:14.235Z,101258.94
2023-01-22T08:43:46.099Z,101258.94
2023-01-22T08:45:17.829Z,101254.47
2023-01-22T08:46:49.583Z,101261.50
2023-01-22T08:48:21.583Z,101267.69
2023-01-22T08:49:53.293Z,101267.69
2023-01-22T08:51:26.743Z,101266.75
2023-01-22T08:52:58.983Z,101266.75
2023-01-22T08:54:30.761Z,101267.53
2023-01-22T08:56:02.459Z,101266.59
2023-01-22T08:57:34.141Z,101266.59
2023-01-22T08:59:06.830Z,101262.13
2023-01-22T09:00:38.879Z,101263.88
2023-01-22T09:02:13.769Z,101268.25
2023-01-22T09:03:45.984Z,101264.59
2023-01-22T09:05:17.749Z,101266.41
2023-01-22T09:06:49.718Z,101258.44
2023-01-22T09:08:21.884Z,101263.69
2023-01-22T09:09:53.564Z,101268.13
2023-01-22T09:11:25.287Z,101269.91
2023-01-22T09:12:59.868Z,101269.91
2023-01-22T09:14:32.569Z,101264.47
2023-01-22T09:16:06.047Z,101271.56
2023-01-22T09:17:37.812Z,101269.78
2023-01-22T09:19:10.804Z,101266.25
2023-01-22T09:20:42.511Z,101269.78
2023-01-22T09:22:14.244Z,101269.69
2023-01-22T09:23:46.000Z,101277.59
2023-01-22T09:25:17.948Z,101275.84
2023-01-22T09:26:49.607Z,101274.06
2023-01-22T09:28:21.664Z,101276.72
2023-01-22T09:29:53.334Z,101281.16
2023-01-22T09:31:25.037Z,101283.66
2023-01-22T09:32:56.943Z,101280.94
2023-01-22T09:34:28.698Z,101283.44
2023-01-22T09:36:15.270Z,101287.97
2023-01-22T09:37:47.033Z,101280.84
2023-01-22T09:39:18.720Z,101279.91
2023-01-22T09:41:02.155Z,101279.91
2023-01-22T09:42:37.688Z,101278.09
2023-01-22T09:44:24.351Z,101292.25
2023-01-22T09:46:01.495Z,101285.06
2023-01-22T09:47:44.079Z,101283.34
2023-01-22T09:49:46.014Z,101283.25
2023-01-22T09:51:19.640Z,101282.25
2023-01-22T09:52:53.726Z,101284.03
2023-01-22T09:54:27.796Z,101278.72
2023-01-22T09:56:00.538Z,101276.94
2023-01-22T09:57:32.653Z,101272.53
2023-01-22T09:59:06.360Z,101272.53
2023-01-22T10:00:40.980Z,101272.63
2023-01-22T10:02:24.363Z,101279.72
2023-01-22T10:04:01.279Z,101283.97
2023-01-22T10:05:39.260Z,101281.31
2023-01-22T10:07:43.457Z,101288.56
2023-01-22T10:09:20.431Z,101287.66
2023-01-22T10:10:52.505Z,101295.63
2023-01-22T10:12:29.312Z,101296.53
2023-01-22T10:14:02.714Z,101297.44
2023-01-22T10:15:34.503Z,101298.31
2023-01-22T10:17:24.137Z,101296.56
2023-01-22T10:19:12.911Z,101300.97
2023-01-22T10:20:45.152Z,101304.44
2023-01-22T10:22:22.496Z,101306.16
2023-01-22T10:23:56.258Z,101299.03
2023-01-22T10:25:28.502Z,101298.09
2023-01-22T10:27:11.579Z,101305.13
2023-01-22T10:28:45.767Z,101305.91
2023-01-22T10:30:23.534Z,101309.47
2023-01-22T10:31:58.498Z,101318.19
2023-01-22T10:33:30.518Z,101316.31
2023-01-22T10:35:11.188Z,101319.03
2023-01-22T10:36:50.242Z,101314.69
2023-01-22T10:38:24.851Z,101319.06
2023-01-22T10:39:59.618Z,101326.09
2023-01-22T10:41:32.248Z,101319.91
2023-01-22T10:43:06.157Z,101313.75
2023-01-22T10:44:37.863Z,101312.81
2023-01-22T10:46:15.051Z,101319.91
2023-01-22T10:47:46.799Z,101319.91
2023-01-22T10:49:27.058Z,101321.69
2023-01-22T10:51:12.525Z,101317.25
2023-01-22T10:52:50.855Z,101316.28
2023-01-22T10:54:43.892Z,101321.59
2023-01-22T10:56:27.889Z,101323.34
2023-01-22T10:58:06.460Z,101319.75
2023-01-22T10:59:38.493Z,101319.66
2023-01-22T11:01:35.820Z,101314.41
2023-01-22T11:03:37.942Z,101323.16
2023-01-22T11:05:17.216Z,101324.78
2023-01-22T11:06:53.786Z,101321.06
2023-01-22T11:08:30.975Z,101325.44
2023-01-22T11:10:24.072Z,101328.00
2023-01-22T11:12:17.812Z,101324.38
2023-01-22T11:14:05.438Z,101322.44
2023-01-22T11:15:43.499Z,101316.97
2023-01-22T11:17:22.645Z,101315.13
2023-01-22T11:18:59.596Z,101321.25
2023-01-22T11:20:56.054Z,101321.25
2023-01-22T11:22:33.601Z,101316.69
2023-01-22T11:24:14.132Z,101317.53
2023-01-22T11:25:56.537Z,101315.72
2023-01-22T11:27:49.014Z,101313.09
2023-01-22T11:29:31.479Z,101313.94
2023-01-22T11:31:13.329Z,101323.66
2023-01-22T11:32:59.203Z,101320.09
2023-01-22T11:34:39.689Z,101322.75
2023-01-22T11:36:19.689Z,101334.25
2023-01-22T11:38:12.562Z,101327.19
2023-01-22T11:39:56.544Z,101320.88
2023-01-22T11:41:40.322Z,101328.00
2023-01-22T11:43:30.076Z,101332.50
2023-01-22T11:45:20.238Z,101329.97
2023-01-22T11:47:11.286Z,101326.41
2023-01-22T11:49:08.391Z,101327.31
2023-01-22T11:50:47.944Z,101326.47
2023-01-22T11:52:48.783Z,101330.16
2023-01-22T11:54:36.152Z,101317.72
2023-01-22T11:56:24.376Z,101320.44
2023-01-22T11:58:09.428Z,101315.06
2023-01-22T12:00:10.674Z,101323.97
2023-01-22T12:01:48.369Z,101315.13
2023-01-22T12:03:27.066Z,101314.25
2023-01-22T12:05:32.495Z,101315.16
2023-01-22T12:07:30.708Z,101323.06
2023-01-22T12:09:08.911Z,101311.53
2023-01-22T12:11:04.999Z,101310.75
2023-01-22T12:12:52.108Z,101316.88
2023-01-22T12:14:52.473Z,101314.25
2023-01-22T12:16:56.959Z,101305.44
2023-01-22T12:18:57.071Z,101304.69
2023-01-22T12:20:50.182Z,101306.47
2023-01-22T12:22:29.006Z,101302.19
2023-01-22T12:24:22.002Z,101308.59
2023-01-22T12:26:06.533Z,101311.34
2023-01-22T12:27:47.903Z,101307.91
2023-01-22T12:29:29.015Z,101305.28
2023-01-22T12:31:20.720Z,101319.59
2023-01-22T12:33:01.027Z,101310.78
2023-01-22T12:34:55.141Z,101318.88
2023-01-22T12:36:28.611Z,101311.78
2023-01-22T12:38:17.696Z,101309.22
2023-01-22T12:40:40.449Z,101311.09
2023-01-22T12:42:30.930Z,101308.41
2023-01-22T12:44:10.550Z,101303.91
2023-01-22T12:45:57.705Z,101314.44
2023-01-22T12:47:38.168Z,101314.41
2023-01-22T12:49:16.346Z,101325.84
2023-01-22T12:50:53.488Z,101319.66
2023-01-22T12:52:30.320Z,101318.66
2023-01-22T12:54:30.121Z,101313.34
2023-01-22T12:56:04.871Z,101315.91
2023-01-22T12:57:40.013Z,101315.91
2023-01-22T12:59:46.688Z,101319.59
2023-01-22T13:01:24.103Z,101316.81
2023-01-22T13:02:56.956Z,101308.84
2023-01-22T13:04:30.612Z,101319.47
2023-01-22T13:06:17.127Z,101316.81
2023-01-22T13:07:50.211Z,101320.34
2023-01-22T13:09:27.455Z,101321.22
2023-01-22T13:11:01.797Z,101319.41
2023-01-22T13:12:47.871Z,101322.13
2023-01-22T13:14:24.514Z,101315.84
2023-01-22T13:16:03.489Z,101322.00
2023-01-22T13:17:36.590Z,101318.47
2023-01-22T13:19:21.687Z,101322.06
2023-01-22T13:20:56.782Z,101329.13
2023-01-22T13:22:28.617Z,101332.66
2023-01-22T13:24:13.739Z,101337.16
2023-01-22T13:25:45.877Z,101333.56
2023-01-22T13:27:24.609Z,101338.88
2023-01-22T13:29:00.125Z,101342.38
2023-01-22T13:30:31.997Z,101344.19
2023-01-22T13:32:15.899Z,101341.53
2023-01-22T13:33:59.627Z,101342.41
2023-01-22T13:35:31.433Z,101337.94
2023-01-22T13:37:03.162Z,101340.59
2023-01-22T13:38:34.844Z,101341.53
2023-01-22T13:40:23.417Z,101346.91
2023-01-22T13:41:57.982Z,101348.59
2023-01-22T13:43:30.044Z,101346.00
2023-01-22T13:45:02.970Z,101348.72
2023-01-22T13:46:38.790Z,101348.78
2023-01-22T13:48:18.315Z,101355.88
2023-01-22T13:49:50.020Z,101355.06
2023-01-22T13:51:22.329Z,101362.25
2023-01-22T13:52:56.401Z,101359.69
2023-01-22T13:54:36.122Z,101362.44
2023-01-22T13:56:15.832Z,101354.56
2023-01-22T13:57:52.784Z,101356.34
2023-01-22T13:59:27.758Z,101359.94
2023-01-22T14:00:59.732Z,101356.47
2023-01-22T14:02:34.767Z,101354.75
2023-01-22T14:04:23.885Z,101351.25
2023-01-22T14:06:11.379Z,101362.03
2023-01-22T14:07:43.069Z,101362.91
2023-01-22T14:09:27.109Z,101363.91
2023-01-22T14:11:00.299Z,101359.50
2023-01-22T14:12:32.267Z,101367.50
2023-01-22T14:14:15.139Z,101364.13
2023-01-22T14:15:59.465Z,101368.56
2023-01-22T14:17:34.295Z,101365.91
2023-01-22T14:19:06.332Z,101365.06
2023-01-22T14:20:42.022Z,101368.69
2023-01-22T14:22:14.098Z,101373.19
2023-01-22T14:23:46.440Z,101382.06
2023-01-22T14:25:18.115Z,101362.63
2023-01-22T14:26:49.791Z,101365.28
2023-01-22T14:28:23.279Z,101358.25
2023-01-22T14:29:55.705Z,101370.63
2023-01-22T14:31:27.463Z,101373.31
2023-01-22T14:32:59.472Z,101370.69
2023-01-22T14:34:31.406Z,101371.59
2023-01-22T14:36:03.587Z,101369.81
2023-01-22T14:37:40.103Z,101370.75
2023-01-22T14:39:12.073Z,101368.09
2023-01-22T14:40:44.016Z,101361.91
2023-01-22T14:42:35.468Z,101373.41
2023-01-22T14:44:07.208Z,101367.22
2023-01-22T14:45:40.800Z,101372.56
2023-01-22T14:47:12.550Z,101369.00
2023-01-22T14:48:44.299Z,101369.91
2023-01-22T14:50:16.785Z,101379.66
2023-01-22T14:51:48.799Z,101371.69
2023-01-22T14:53:20.545Z,101369.91
2023-01-22T14:54:52.539Z,101373.47
2023-01-22T14:56:28.457Z,101380.59
2023-01-22T14:58:04.510Z,101378.00
2023-01-22T14:59:42.707Z,101383.34
2023-01-22T15:01:21.846Z,101378.94
2023-01-22T15:02:57.980Z,101377.19
2023-01-22T15:04:30.023Z,101378.09
2023-01-22T15:06:01.721Z,101378.09
2023-01-22T15:07:34.737Z,101371.94
2023-01-22T15:09:06.432Z,101377.25
2023-01-22T15:10:38.430Z,101385.22
2023-01-22T15:12:10.859Z,101383.50
2023-01-22T15:13:43.069Z,101380.00
2023-01-22T15:15:23.200Z,101376.50
2023-01-22T15:16:55.224Z,101380.00
2023-01-22T15:18:26.941Z,101370.34
2023-01-22T15:19:58.696Z,101373.00
2023-01-22T15:21:30.381Z,101367.69
2023-01-22T15:23:02.377Z,101371.22
2023-01-22T15:24:34.376Z,101379.19
2023-01-22T15:26:09.570Z,101395.97
2023-01-22T15:27:42.065Z,101395.16
2023-01-22T15:29:14.437Z,101392.50
2023-01-22T15:30:47.036Z,101384.56
2023-01-22T15:32:19.035Z,101389.00
2023-01-22T15:33:51.061Z,101389.06
2023-01-22T15:35:22.786Z,101389.00
2023-01-22T15:36:54.500Z,101396.09
2023-01-22T15:38:26.968Z,101386.41
2023-01-22T15:39:58.997Z,101395.25
2023-01-22T15:41:33.149Z,101399.69
2023-01-22T15:43:05.308Z,101396.22
2023-01-22T15:44:38.705Z,101400.66
2023-01-22T15:46:10.841Z,101399.75
2023-01-22T15:47:42.861Z,101394.47
2023-01-22T15:49:15.068Z,101398.03
2023-01-22T15:50:46.815Z,101399.81
2023-01-22T15:52:19.060Z,101391.00
2023-01-22T15:53:59.055Z,101399.03
2023-01-22T15:55:30.846Z,101394.53
2023-01-22T15:57:02.820Z,101388.41
2023-01-22T15:58:35.048Z,101384.88
2023-01-22T16:00:07.340Z,101401.66
2023-01-22T16:01:44.033Z,101399.94
2023-01-22T16:03:16.031Z,101401.75
2023-01-22T16:04:47.774Z,101397.38
2023-01-22T16:06:24.478Z,101415.94
2023-01-22T16:07:56.419Z,101412.38
2023-01-22T16:09:28.414Z,101415.94
2023-01-22T16:11:00.380Z,101425.66
2023-01-22T16:12:32.069Z,101423.03
2023-01-22T16:14:04.233Z,101420.38
2023-01-22T16:15:36.442Z,101418.59
2023-01-22T16:17:08.134Z,101428.34
2023-01-22T16:18:42.959Z,101418.59
2023-01-22T16:20:14.773Z,101430.09
2023-01-22T16:21:47.717Z,101430.94
2023-01-22T16:23:19.501Z,101427.44
2023-01-22T16:24:51.189Z,101441.56
2023-01-22T16:26:26.614Z,101440.69
2023-01-22T16:27:58.645Z,101439.81
2023-01-22T16:29:30.365Z,101441.53
2023-01-22T16:31:08.735Z,101438.91
2023-01-22T16:32:46.159Z,101437.97
2023-01-22T16:34:20.719Z,101439.75
2023-01-22T16:36:00.507Z,101443.34
2023-01-22T16:37:32.485Z,101439.75
2023-01-22T16:39:05.407Z,101437.03
2023-01-22T16:40:37.366Z,101434.44
2023-01-22T16:42:09.341Z,101441.47
2023-01-22T16:43:41.344Z,101439.69
2023-01-22T16:45:13.116Z,101437.97
2023-01-22T16:46:49.824Z,101443.22
2023-01-22T16:48:21.878Z,101440.63
2023-01-22T16:49:53.549Z,101440.56
2023-01-22T16:51:27.057Z,101440.56
2023-01-22T16:52:59.669Z,101451.16
2023-01-22T16:54:37.400Z,101446.78
2023-01-22T16:56:09.574Z,101454.69
2023-01-22T16:57:41.553Z,101453.81
2023-01-22T16:59:13.359Z,101458.22
2023-01-22T17:00:47.428Z,101455.56
2023-01-22T17:02:19.689Z,101452.91
2023-01-22T17:03:51.753Z,101458.19
2023-01-22T17:05:23.974Z,101453.75
2023-01-22T17:06:58.133Z,101456.41
2023-01-22T17:08:29.855Z,101456.41
2023-01-22T17:10:01.816Z,101460.00
2023-01-22T17:11:33.837Z,101456.41
2023-01-22T17:13:06.677Z,101457.34
2023-01-22T17:14:38.533Z,101455.56
2023-01-22T17:16:11.177Z,101453.75
2023-01-22T17:17:43.137Z,101458.19
2023-01-22T17:19:15.326Z,101460.84
2023-01-22T17:21:01.403Z,101464.44
2023-01-22T17:22:36.136Z,101462.66
2023-01-22T17:24:09.712Z,101461.78
2023-01-22T17:25:44.206Z,101462.72
2023-01-22T17:27:18.642Z,101468.94
2023-01-22T17:28:50.655Z,101464.50
2023-01-22T17:30:23.011Z,101461.84
2023-01-22T17:31:55.967Z,101460.13
2023-01-22T17:33:28.995Z,101467.16
2023-01-22T17:35:01.266Z,101470.69
2023-01-22T17:36:33.277Z,101470.75
2023-01-22T17:38:05.222Z,101478.69
2023-01-22T17:39:38.068Z,101475.19
2023-01-22T17:41:18.268Z,101473.41
2023-01-22T17:42:49.978Z,101483.09
2023-01-22T17:44:21.682Z,101478.69
2023-01-22T17:45:54.053Z,101484.88
2023-01-22T17:47:26.078Z,101486.66
2023-01-22T17:48:59.624Z,101491.91
2023-01-22T17:50:31.317Z,101487.53
2023-01-22T17:52:03.567Z,101491.97
2023-01-22T17:53:40.779Z,101491.97
2023-01-22T17:55:12.526Z,101499.00
2023-01-22T17:56:47.321Z,101497.28
2023-01-22T17:58:19.301Z,101490.22
2023-01-22T17:59:51.525Z,101492.84
2023-01-22T18:01:25.727Z,101503.44
2023-01-22T18:02:57.804Z,101496.41
2023-01-22T18:04:34.730Z,101499.06
2023-01-22T18:06:07.513Z,101507.03
2023-01-22T18:07:39.489Z,101500.84
2023-01-22T18:09:12.453Z,101499.06
2023-01-22T18:10:44.137Z,101499.06